Time;durP1;ratioP1;P1;durP2;ratioP2;P2;SDS_P1;SDS_P2;PMS_P1;PMS_P2;Temp;Humidity;BMP_temperature;BMP_pressure;BME280_temperature;BME280_humidity;BME280_pressure;Samples;Min_cycle;Max_cycle;Signal;HPM_P1;HPM_P2
2023/03/25 00:00:57;;;;;;;23.52;3.70;;;9.10;99.90;;;;;;4894134;29;20487;-75
2023/03/25 00:03:29;;;;;;;22.83;3.22;;;9.10;99.90;;;;;;4893363;29;20049;-74
2023/03/25 00:05:56;;;;;;;24.08;3.03;;;9.10;99.90;;;;;;4871220;29;20064;-74
2023/03/25 00:08:24;;;;;;;22.17;3.78;;;9.10;99.90;;;;;;4874364;29;20060;-74
2023/03/25 00:10:58;;;;;;;23.13;4.18;;;9.10;99.90;;;;;;4890504;29;20489;-74
2023/03/25 00:13:24;;;;;;;20.63;3.42;;;9.10;99.90;;;;;;4884365;29;20080;-73
2023/03/25 00:15:52;;;;;;;27.92;4.22;;;9.00;99.90;;;;;;4889025;29;20044;-74
2023/03/25 00:18:19;;;;;;;24.70;3.75;;;9.00;99.90;;;;;;4875284;29;20048;-74
2023/03/25 00:20:48;;;;;;;21.25;3.53;;;9.00;99.90;;;;;;4878531;29;20289;-74
2023/03/25 00:23:15;;;;;;;23.42;3.90;;;9.00;99.90;;;;;;4878474;29;20052;-74
2023/03/25 00:25:43;;;;;;;26.52;4.80;;;9.00;99.90;;;;;;4880619;29;20060;-74
2023/03/25 00:28:12;;;;;;;28.02;3.92;;;9.00;99.90;;;;;;4898521;29;20048;-74
2023/03/25 00:30:39;;;;;;;29.52;4.50;;;8.90;99.90;;;;;;4886490;29;20126;-74
2023/03/25 00:33:05;;;;;;;24.30;4.65;;;8.90;99.90;;;;;;4900847;29;20513;-75
2023/03/25 00:35:31;;;;;;;33.13;5.03;;;8.80;99.90;;;;;;4883397;29;20052;-74
2023/03/25 00:38:01;;;;;;;27.15;4.85;;;8.80;99.90;;;;;;4882416;29;20077;-75
2023/03/25 00:40:29;;;;;;;38.17;5.65;;;8.80;99.90;;;;;;4882593;29;20054;-74
2023/03/25 00:42:56;;;;;;;34.35;4.35;;;8.80;99.90;;;;;;4882420;29;20553;-74
2023/03/25 00:45:22;;;;;;;30.38;4.15;;;8.70;99.90;;;;;;4881809;29;20077;-74
2023/03/25 00:47:48;;;;;;;25.73;4.18;;;8.70;99.90;;;;;;4898920;29;20425;-75
2023/03/25 00:50:14;;;;;;;26.97;4.63;;;8.70;99.90;;;;;;4884347;29;20049;-75
2023/03/25 00:52:40;;;;;;;23.77;4.07;;;8.70;99.90;;;;;;4885384;29;20078;-74
2023/03/25 00:55:06;;;;;;;28.53;4.10;;;8.70;99.90;;;;;;4896116;29;20040;-74
2023/03/25 00:57:32;;;;;;;25.42;4.78;;;8.70;99.90;;;;;;4896564;29;20056;-75
2023/03/25 00:59:58;;;;;;;27.13;4.15;;;8.70;99.90;;;;;;4883153;29;20266;-74
2023/03/25 01:02:24;;;;;;;27.90;4.73;;;8.70;99.90;;;;;;4899209;29;20067;-74
2023/03/25 01:04:49;;;;;;;29.77;4.43;;;8.70;99.90;;;;;;4908415;29;20056;-74
2023/03/25 01:07:19;;;;;;;35.93;4.23;;;8.70;99.90;;;;;;4897874;29;20061;-74
2023/03/25 01:09:46;;;;;;;28.23;4.00;;;8.70;99.90;;;;;;4898107;29;20450;-74
2023/03/25 01:12:15;;;;;;;26.38;4.97;;;8.60;99.90;;;;;;4897665;29;20044;-74
2023/03/25 01:14:42;;;;;;;32.08;4.57;;;8.70;99.90;;;;;;4879423;29;20060;-74
2023/03/25 01:17:08;;;;;;;34.67;5.50;;;8.70;99.90;;;;;;4880803;29;20056;-74
2023/03/25 01:19:34;;;;;;;31.13;4.80;;;8.60;99.90;;;;;;4897692;29;20385;-74
2023/03/25 01:22:00;;;;;;;31.23;4.25;;;8.60;99.90;;;;;;4901869;29;20045;-74
2023/03/25 01:24:26;;;;;;;27.97;4.63;;;8.60;99.90;;;;;;4883901;29;20064;-74
2023/03/25 01:26:51;;;;;;;28.73;4.47;;;8.60;99.90;;;;;;4899548;29;20080;-74
2023/03/25 01:29:19;;;;;;;31.30;5.70;;;8.60;99.90;;;;;;4900633;29;20035;-74
2023/03/25 01:31:45;;;;;;;24.23;4.25;;;8.50;99.90;;;;;;4900446;29;20049;-74
2023/03/25 01:34:12;;;;;;;34.35;4.95;;;8.60;99.90;;;;;;4900195;29;20263;-74
2023/03/25 01:36:45;;;;;;;27.85;5.35;;;8.60;99.90;;;;;;4883969;29;20044;-74
2023/03/25 01:39:15;;;;;;;29.17;4.35;;;8.60;99.90;;;;;;4896377;29;20059;-74
2023/03/25 01:41:42;;;;;;;31.98;5.10;;;8.50;99.90;;;;;;4881769;29;20503;-75
2023/03/25 01:44:23;;;;;;;33.28;4.20;;;8.60;99.90;;;;;;4897039;29;20064;-74
2023/03/25 01:46:51;;;;;;;32.47;5.35;;;8.60;99.90;;;;;;4895945;29;20044;-74
2023/03/25 01:49:30;;;;;;;36.47;5.25;;;8.60;99.90;;;;;;4881109;29;20040;-74
2023/03/25 01:52:01;;;;;;;27.13;4.93;;;8.60;99.90;;;;;;4896225;29;20052;-74
2023/03/25 01:54:28;;;;;;;31.02;5.22;;;8.60;99.90;;;;;;4880190;29;20048;-74
2023/03/25 01:56:54;;;;;;;29.55;4.93;;;8.60;99.90;;;;;;4890373;29;20068;-74
2023/03/25 01:59:25;;;;;;;32.05;6.55;;;8.50;99.90;;;;;;4887603;29;20048;-74
2023/03/25 02:01:52;;;;;;;35.47;5.60;;;8.50;99.90;;;;;;4895989;29;20044;-74
2023/03/25 02:04:38;;;;;;;35.47;4.47;;;8.40;99.90;;;;;;4881442;29;20508;-74
2023/03/25 02:07:07;;;;;;;31.40;6.00;;;8.40;99.90;;;;;;4871872;29;20109;-74
2023/03/25 02:09:33;;;;;;;30.20;5.88;;;8.50;99.90;;;;;;4885590;29;20045;-74
2023/03/25 02:11:59;;;;;;;36.08;6.15;;;8.40;99.90;;;;;;4877710;29;20071;-74
2023/03/25 02:14:29;;;;;;;38.53;5.80;;;8.40;99.90;;;;;;4892475;29;20063;-74
2023/03/25 02:17:01;;;;;;;26.00;4.18;;;8.40;99.90;;;;;;4878478;29;20059;-74
2023/03/25 02:19:39;;;;;;;30.20;5.05;;;8.40;99.90;;;;;;4885354;29;20059;-74
2023/03/25 02:22:36;;;;;;;33.63;6.63;;;8.30;99.90;;;;;;4894952;29;20056;-75
2023/03/25 02:25:11;;;;;;;32.38;4.38;;;8.30;99.90;;;;;;4894328;29;20059;-75
2023/03/25 02:28:14;;;;;;;24.13;4.32;;;8.30;99.90;;;;;;4885600;29;20314;-74
2023/03/25 02:31:17;;;;;;;30.17;5.65;;;8.20;99.90;;;;;;4888093;29;20053;-74
2023/03/25 02:33:59;;;;;;;33.95;5.50;;;8.20;99.90;;;;;;4887312;29;20048;-75
2023/03/25 02:36:29;;;;;;;32.30;5.43;;;8.30;99.90;;;;;;4876041;29;20052;-74
2023/03/25 02:39:33;;;;;;;30.45;4.00;;;8.30;99.90;;;;;;4895333;29;20055;-74
2023/03/25 02:42:06;;;;;;;28.75;4.53;;;8.30;99.90;;;;;;4875895;29;20052;-75
2023/03/25 02:44:42;;;;;;;28.45;5.47;;;8.40;99.90;;;;;;4896578;29;20044;-74
2023/03/25 02:47:14;;;;;;;30.27;4.68;;;8.40;99.90;;;;;;4879852;29;20072;-74
2023/03/25 02:49:46;;;;;;;28.58;4.40;;;8.40;99.90;;;;;;4896205;29;20462;-74
2023/03/25 02:52:23;;;;;;;23.63;5.10;;;8.40;99.90;;;;;;4881639;29;20130;-74
2023/03/25 02:54:56;;;;;;;23.67;4.95;;;8.50;99.90;;;;;;4869837;29;20072;-74
2023/03/25 02:57:27;;;;;;;27.30;4.45;;;8.50;99.90;;;;;;4875128;29;20041;-74
2023/03/25 02:59:55;;;;;;;30.35;4.53;;;8.50;99.90;;;;;;4880594;29;20044;-74
2023/03/25 03:02:24;;;;;;;21.75;4.18;;;8.50;99.90;;;;;;4894914;29;20429;-74
2023/03/25 03:04:53;;;;;;;30.75;4.65;;;8.50;99.90;;;;;;4877462;29;20516;-74
2023/03/25 03:07:26;;;;;;;29.92;5.10;;;8.50;99.90;;;;;;4894619;29;20075;-74
2023/03/25 03:10:16;;;;;;;33.55;4.53;;;8.50;99.90;;;;;;4876732;29;20044;-74
2023/03/25 03:13:08;;;;;;;30.60;4.72;;;8.50;99.90;;;;;;4878786;29;20064;-74
2023/03/25 03:15:45;;;;;;;29.17;4.97;;;8.50;99.90;;;;;;4893237;29;20053;-74
2023/03/25 03:18:25;;;;;;;27.20;4.50;;;8.60;99.90;;;;;;4877914;29;20050;-74
2023/03/25 03:20:59;;;;;;;34.40;5.43;;;8.60;99.90;;;;;;4891103;29;20044;-74
2023/03/25 03:23:35;;;;;;;25.27;4.32;;;8.60;99.90;;;;;;4894505;29;20056;-74
2023/03/25 03:26:12;;;;;;;35.92;4.78;;;8.50;99.90;;;;;;4879690;29;20047;-74
2023/03/25 03:28:46;;;;;;;35.20;4.88;;;8.50;99.90;;;;;;4878598;29;20075;-74
2023/03/25 03:31:23;;;;;;;31.25;5.90;;;8.50;99.90;;;;;;4877875;29;20040;-74
2023/03/25 03:33:49;;;;;;;28.63;4.88;;;8.60;99.90;;;;;;4880348;29;20161;-74
2023/03/25 03:36:29;;;;;;;39.95;5.93;;;8.60;99.90;;;;;;4893548;29;20516;-74
2023/03/25 03:39:04;;;;;;;28.02;5.72;;;8.60;99.90;;;;;;4884454;29;20052;-74
2023/03/25 03:41:34;;;;;;;30.80;5.13;;;8.60;99.90;;;;;;4894416;29;20056;-74
2023/03/25 03:44:13;;;;;;;32.97;4.22;;;8.60;99.90;;;;;;4895177;29;20501;-74
2023/03/25 03:46:46;;;;;;;27.98;4.72;;;8.60;99.90;;;;;;4909458;29;20083;-74
2023/03/25 03:49:20;;;;;;;30.83;5.10;;;8.60;99.90;;;;;;4894674;29;20100;-74
2023/03/25 03:51:54;;;;;;;30.60;4.35;;;8.60;99.90;;;;;;4910054;29;20071;-73
2023/03/25 03:54:25;;;;;;;32.63;4.95;;;8.60;99.90;;;;;;4894559;29;20049;-73
2023/03/25 03:57:06;;;;;;;27.10;4.63;;;8.70;99.90;;;;;;4893327;29;20044;-73
2023/03/25 04:00:05;;;;;;;30.25;4.15;;;8.60;99.90;;;;;;4896072;29;20568;-74
2023/03/25 04:02:46;;;;;;;35.42;5.38;;;8.60;99.90;;;;;;4878758;29;20056;-73
2023/03/25 04:05:15;;;;;;;26.05;5.13;;;8.60;99.90;;;;;;4892576;29;20040;-74
2023/03/25 04:07:53;;;;;;;32.33;5.43;;;8.60;99.90;;;;;;4885600;29;20080;-74
2023/03/25 04:10:45;;;;;;;30.42;5.18;;;8.60;99.90;;;;;;4870847;29;20044;-74
2023/03/25 04:13:15;;;;;;;28.60;4.65;;;8.70;99.90;;;;;;4887712;29;20045;-74
2023/03/25 04:15:42;;;;;;;28.73;4.18;;;8.60;99.90;;;;;;4887946;29;20104;-74
2023/03/25 04:18:08;;;;;;;30.85;5.30;;;8.70;99.90;;;;;;4906391;29;20160;-74
2023/03/25 04:20:35;;;;;;;30.40;4.82;;;8.60;99.90;;;;;;4891830;29;20048;-74
2023/03/25 04:23:04;;;;;;;29.70;4.95;;;8.60;99.90;;;;;;4871769;29;20392;-74
2023/03/25 04:25:31;;;;;;;32.50;5.65;;;8.60;99.90;;;;;;4875541;29;20044;-74
2023/03/25 04:27:58;;;;;;;30.98;5.40;;;8.60;99.90;;;;;;4868989;29;20036;-73
2023/03/25 04:30:28;;;;;;;32.72;4.72;;;8.60;99.90;;;;;;4875771;29;20037;-74
2023/03/25 04:32:54;;;;;;;30.00;4.70;;;8.60;99.90;;;;;;4890959;29;20093;-74
2023/03/25 04:35:20;;;;;;;28.40;4.45;;;8.50;99.90;;;;;;4890649;29;20048;-73
2023/03/25 04:37:47;;;;;;;26.33;4.40;;;8.50;99.90;;;;;;4888493;29;20052;-73
2023/03/25 04:40:17;;;;;;;33.25;5.40;;;8.50;99.90;;;;;;4889702;29;20083;-73
2023/03/25 04:42:45;;;;;;;30.20;4.47;;;8.50;99.90;;;;;;4889146;29;20044;-74
2023/03/25 04:45:15;;;;;;;36.05;6.10;;;8.40;99.90;;;;;;4882226;29;20094;-74
2023/03/25 04:47:43;;;;;;;34.15;5.22;;;8.40;99.90;;;;;;4875525;29;20048;-73
2023/03/25 04:50:28;;;;;;;34.22;5.90;;;8.40;99.90;;;;;;4891866;29;20172;-73
2023/03/25 04:52:59;;;;;;;48.55;5.38;;;8.40;99.90;;;;;;4877346;29;20210;-74
2023/03/25 04:55:25;;;;;;;33.00;5.80;;;8.30;99.90;;;;;;4893438;29;20056;-74
2023/03/25 04:57:52;;;;;;;37.45;6.38;;;8.30;99.90;;;;;;4892729;29;20068;-74
2023/03/25 05:00:21;;;;;;;31.15;5.20;;;8.30;99.90;;;;;;4877359;29;20059;-74
2023/03/25 05:02:50;;;;;;;31.85;4.85;;;8.30;99.90;;;;;;4892565;29;20092;-73
2023/03/25 05:05:17;;;;;;;40.20;6.45;;;8.20;99.90;;;;;;4874687;29;20044;-74
2023/03/25 05:07:49;;;;;;;32.22;5.32;;;8.10;99.90;;;;;;4880604;29;20057;-74
2023/03/25 05:10:25;;;;;;;36.10;5.90;;;8.10;99.90;;;;;;4875154;29;20044;-73
2023/03/25 05:13:02;;;;;;;36.60;6.05;;;8.00;99.90;;;;;;4893866;29;20044;-74
2023/03/25 05:15:29;;;;;;;35.22;5.72;;;8.00;99.90;;;;;;4880472;29;20048;-74
2023/03/25 05:17:55;;;;;;;32.80;5.85;;;8.00;99.90;;;;;;4871824;29;20041;-74
2023/03/25 05:20:21;;;;;;;36.63;7.80;;;8.00;99.90;;;;;;4877225;29;20051;-74
2023/03/25 05:22:47;;;;;;;33.45;6.05;;;8.10;99.90;;;;;;4879497;29;20580;-74
2023/03/25 05:25:13;;;;;;;34.40;6.63;;;8.10;99.90;;;;;;4878291;29;20052;-75
2023/03/25 05:27:39;;;;;;;35.37;5.10;;;8.20;99.90;;;;;;4875124;29;20041;-73
2023/03/25 05:30:06;;;;;;;37.10;5.40;;;8.20;99.90;;;;;;4891173;29;20096;-74
2023/03/25 05:32:32;;;;;;;31.88;5.50;;;8.30;99.90;;;;;;4877576;29;20092;-73
2023/03/25 05:34:59;;;;;;;37.10;5.80;;;8.30;99.90;;;;;;4891512;29;20052;-73
2023/03/25 05:37:25;;;;;;;29.15;4.95;;;8.30;99.90;;;;;;4894022;29;20053;-73
2023/03/25 05:39:51;;;;;;;29.52;4.70;;;8.30;99.90;;;;;;4878848;29;20040;-73
2023/03/25 05:42:21;;;;;;;33.80;5.57;;;8.30;99.90;;;;;;4893781;29;20048;-73
2023/03/25 05:44:49;;;;;;;37.70;5.35;;;8.40;99.90;;;;;;4878186;29;20438;-73
2023/03/25 05:47:20;;;;;;;29.30;4.95;;;8.40;99.90;;;;;;4894022;29;20055;-73
2023/03/25 05:49:47;;;;;;;40.47;6.40;;;8.40;99.90;;;;;;4878777;29;20123;-73
2023/03/25 05:52:13;;;;;;;27.90;5.15;;;8.40;99.90;;;;;;4892970;29;20104;-73
2023/03/25 05:54:40;;;;;;;32.83;5.27;;;8.40;99.90;;;;;;4878092;29;20044;-73
2023/03/25 05:57:09;;;;;;;31.30;5.35;;;8.40;99.90;;;;;;4889972;29;20048;-74
2023/03/25 05:59:39;;;;;;;30.98;4.70;;;8.40;99.90;;;;;;4893538;29;20072;-73
2023/03/25 06:02:07;;;;;;;30.35;5.10;;;8.40;99.90;;;;;;4892077;29;20516;-73
2023/03/25 06:04:36;;;;;;;26.33;4.82;;;8.40;99.90;;;;;;4872362;29;20120;-74
2023/03/25 06:07:18;;;;;;;24.63;4.28;;;8.40;99.90;;;;;;4892573;29;20112;-73
2023/03/25 06:09:48;;;;;;;26.35;4.38;;;8.40;99.90;;;;;;4882797;29;20048;-73
2023/03/25 06:12:19;;;;;;;30.80;4.47;;;8.40;99.90;;;;;;4877938;29;20085;-73
2023/03/25 06:14:52;;;;;;;25.10;3.67;;;8.40;99.90;;;;;;4893072;29;20120;-73
2023/03/25 06:17:21;;;;;;;27.20;3.55;;;8.40;99.90;;;;;;4876481;29;20541;-74
2023/03/25 06:19:50;;;;;;;25.25;4.40;;;8.40;99.90;;;;;;4878239;29;20064;-74
2023/03/25 06:22:19;;;;;;;21.83;3.65;;;8.40;99.90;;;;;;4892320;29;20036;-74
2023/03/25 06:24:46;;;;;;;27.88;4.50;;;8.40;99.90;;;;;;4876389;29;20052;-73
2023/03/25 06:27:13;;;;;;;26.33;4.15;;;8.50;99.90;;;;;;4892003;29;20497;-73
2023/03/25 06:29:42;;;;;;;25.13;4.13;;;8.50;99.90;;;;;;4891194;29;20458;-73
2023/03/25 06:32:10;;;;;;;18.98;2.97;;;8.50;99.90;;;;;;4893905;29;20045;-73
2023/03/25 06:34:37;;;;;;;25.67;4.20;;;8.50;99.90;;;;;;4892968;29;20049;-74
2023/03/25 06:37:04;;;;;;;21.33;3.42;;;8.40;99.90;;;;;;4894231;29;20056;-74
2023/03/25 06:39:30;;;;;;;21.73;3.05;;;8.40;99.90;;;;;;4894136;29;20049;-73
2023/03/25 06:41:57;;;;;;;24.95;3.42;;;8.30;99.90;;;;;;4873873;29;20093;-73
2023/03/25 06:44:24;;;;;;;24.15;3.40;;;8.30;99.90;;;;;;4877644;29;20040;-73
2023/03/25 06:46:50;;;;;;;20.10;3.80;;;8.30;99.90;;;;;;4877946;29;20097;-76
2023/03/25 06:49:16;;;;;;;28.23;4.20;;;8.30;99.90;;;;;;4878334;29;20060;-75
2023/03/25 06:51:42;;;;;;;24.60;4.70;;;8.30;99.90;;;;;;4894618;29;20690;-76
2023/03/25 06:54:07;;;;;;;23.67;3.03;;;8.30;99.90;;;;;;4893339;29;20048;-75
2023/03/25 06:56:33;;;;;;;20.93;3.30;;;8.30;99.90;;;;;;4888845;29;20044;-76
2023/03/25 06:58:59;;;;;;;25.50;4.00;;;8.30;99.90;;;;;;4874107;29;20059;-76
2023/03/25 07:01:25;;;;;;;24.67;3.93;;;8.30;99.90;;;;;;4893981;29;20053;-75
2023/03/25 07:03:50;;;;;;;16.57;3.33;;;8.30;99.90;;;;;;4893626;29;20080;-76
2023/03/25 07:06:19;;;;;;;21.17;3.27;;;8.30;99.90;;;;;;4878388;29;20043;-75
2023/03/25 07:08:45;;;;;;;25.25;4.18;;;8.30;99.90;;;;;;4891643;29;20041;-75
2023/03/25 07:11:12;;;;;;;18.65;3.65;;;8.20;99.90;;;;;;4890144;29;20072;-76
2023/03/25 07:13:38;;;;;;;16.83;2.95;;;8.20;99.90;;;;;;4863494;29;20052;-76
2023/03/25 07:16:05;;;;;;;20.95;3.30;;;8.20;99.90;;;;;;4875215;29;20119;-75
2023/03/25 07:18:30;;;;;;;24.35;3.90;;;8.10;99.90;;;;;;4893044;29;20044;-75
2023/03/25 07:20:56;;;;;;;20.80;3.10;;;8.10;99.90;;;;;;4876262;29;20037;-76
2023/03/25 07:23:22;;;;;;;24.90;3.67;;;8.00;99.90;;;;;;4892822;29;20052;-74
2023/03/25 07:25:48;;;;;;;22.20;3.57;;;8.00;99.90;;;;;;4891190;29;20132;-73
2023/03/25 07:28:14;;;;;;;26.03;3.63;;;7.90;99.90;;;;;;4892740;29;20123;-74
2023/03/25 07:30:40;;;;;;;27.92;3.92;;;7.90;99.90;;;;;;4878895;29;20723;-74
2023/03/25 07:33:05;;;;;;;23.20;3.30;;;7.80;99.90;;;;;;4908891;29;20048;-74
2023/03/25 07:35:31;;;;;;;22.07;3.57;;;7.80;99.90;;;;;;4892306;29;20044;-74
2023/03/25 07:37:57;;;;;;;21.67;4.03;;;7.80;99.90;;;;;;4892744;29;20079;-73
2023/03/25 07:40:23;;;;;;;21.07;3.50;;;7.80;99.90;;;;;;4877120;29;20403;-74
2023/03/25 07:42:48;;;;;;;26.33;4.00;;;7.80;99.90;;;;;;4891856;29;20044;-76
2023/03/25 07:45:14;;;;;;;20.63;3.27;;;7.80;99.90;;;;;;4892981;29;20044;-75
2023/03/25 07:47:40;;;;;;;21.17;3.57;;;7.90;99.90;;;;;;4868447;29;20076;-76
2023/03/25 07:50:06;;;;;;;22.87;3.47;;;7.90;99.90;;;;;;4876909;29;20040;-77
2023/03/25 07:52:32;;;;;;;22.92;3.67;;;8.00;99.90;;;;;;4893028;29;20076;-76
2023/03/25 07:54:59;;;;;;;22.33;3.77;;;8.00;99.90;;;;;;4875233;29;20059;-76
2023/03/25 07:57:25;;;;;;;27.10;5.15;;;8.00;99.90;;;;;;4890056;29;20082;-74
2023/03/25 07:59:51;;;;;;;26.58;3.55;;;8.00;99.90;;;;;;4889911;29;20426;-75
2023/03/25 08:02:17;;;;;;;22.03;3.40;;;8.00;99.90;;;;;;4888747;29;20041;-74
2023/03/25 08:04:43;;;;;;;24.63;3.60;;;8.00;99.90;;;;;;4873810;29;20120;-76
2023/03/25 08:07:08;;;;;;;20.93;3.67;;;8.00;99.90;;;;;;4888799;29;20056;-76
2023/03/25 08:09:34;;;;;;;28.47;3.90;;;8.00;99.90;;;;;;4887493;29;20075;-75
2023/03/25 08:12:00;;;;;;;19.47;2.73;;;8.10;99.90;;;;;;4887320;29;20079;-75
2023/03/25 08:14:26;;;;;;;29.23;3.63;;;8.10;99.90;;;;;;4872973;29;20135;-75
2023/03/25 08:16:52;;;;;;;22.95;3.17;;;8.30;99.90;;;;;;4887233;29;20117;-75
2023/03/25 08:19:18;;;;;;;24.50;3.60;;;8.40;99.90;;;;;;4885899;29;20072;-76
2023/03/25 08:21:44;;;;;;;24.53;3.17;;;8.50;99.90;;;;;;4887948;29;20048;-76
2023/03/25 08:24:10;;;;;;;25.27;3.40;;;8.60;99.90;;;;;;4887288;29;20526;-76
2023/03/25 08:26:37;;;;;;;23.43;3.03;;;8.60;99.90;;;;;;4885873;29;20053;-76
2023/03/25 08:29:03;;;;;;;19.27;3.83;;;8.80;99.90;;;;;;4873209;29;20040;-76
2023/03/25 08:31:31;;;;;;;18.17;2.80;;;8.90;99.90;;;;;;4888971;29;20059;-75
2023/03/25 08:34:02;;;;;;;21.70;4.15;;;9.00;99.90;;;;;;4887841;29;20260;-76
2023/03/25 08:36:31;;;;;;;22.40;3.25;;;9.10;99.90;;;;;;4901907;29;20112;-76
2023/03/25 08:38:56;;;;;;;18.70;3.27;;;9.30;99.90;;;;;;4876104;29;20080;-76
2023/03/25 08:41:23;;;;;;;19.63;2.97;;;9.40;99.90;;;;;;4880528;29;20037;-75
2023/03/25 08:43:49;;;;;;;17.73;3.20;;;9.50;99.90;;;;;;4882787;29;20044;-75
2023/03/25 08:46:15;;;;;;;20.83;2.58;;;9.50;99.90;;;;;;4874380;29;20040;-74
2023/03/25 08:48:42;;;;;;;16.03;3.17;;;9.50;99.90;;;;;;4886259;29;20092;-76
2023/03/25 08:51:08;;;;;;;20.50;3.08;;;9.50;99.90;;;;;;4888586;29;20080;-75
2023/03/25 08:53:34;;;;;;;20.37;2.80;;;9.40;99.90;;;;;;4888323;29;20052;-75
2023/03/25 08:56:00;;;;;;;18.47;2.70;;;9.50;99.90;;;;;;4890492;29;20375;-75
2023/03/25 08:58:26;;;;;;;20.43;2.77;;;9.60;99.90;;;;;;4891483;29;20362;-76
2023/03/25 09:00:54;;;;;;;19.87;3.90;;;9.60;99.90;;;;;;4874507;29;20048;-76
2023/03/25 09:03:21;;;;;;;21.15;3.17;;;9.60;99.90;;;;;;4891515;29;20052;-76
2023/03/25 09:05:47;;;;;;;21.35;2.90;;;9.70;99.90;;;;;;4873285;29;20175;-76
2023/03/25 09:08:14;;;;;;;19.30;2.45;;;9.70;99.90;;;;;;4888395;29;20057;-75
2023/03/25 09:10:40;;;;;;;20.42;3.40;;;9.70;99.90;;;;;;4885896;29;20071;-76
2023/03/25 09:13:09;;;;;;;17.38;2.92;;;9.70;99.90;;;;;;4880128;29;20097;-76
2023/03/25 09:15:35;;;;;;;17.27;3.00;;;9.60;99.90;;;;;;4885763;29;20048;-76
2023/03/25 09:18:01;;;;;;;16.27;2.92;;;9.50;99.90;;;;;;4871638;29;20040;-76
2023/03/25 09:20:27;;;;;;;18.00;3.00;;;9.50;99.90;;;;;;4880719;29;20055;-76
2023/03/25 09:22:52;;;;;;;18.33;3.33;;;9.50;99.90;;;;;;4868804;29;20063;-77
2023/03/25 09:25:18;;;;;;;11.00;2.43;;;9.50;99.90;;;;;;4869891;29;20051;-76
2023/03/25 09:27:44;;;;;;;18.57;2.40;;;9.50;99.90;;;;;;4869531;29;20037;-76
2023/03/25 09:30:11;;;;;;;21.23;3.23;;;9.50;99.90;;;;;;4891911;29;20485;-76
2023/03/25 09:32:37;;;;;;;15.23;2.67;;;9.60;99.90;;;;;;4891833;29;20048;-77
2023/03/25 09:35:03;;;;;;;17.57;3.23;;;9.60;99.90;;;;;;4891419;29;20144;-77
2023/03/25 09:37:29;;;;;;;27.33;3.90;;;9.60;99.90;;;;;;4875625;29;20115;-77
2023/03/25 09:39:54;;;;;;;18.20;3.40;;;9.60;99.90;;;;;;4891081;29;20092;-77
2023/03/25 09:42:29;;;;;;;16.10;3.07;;;9.60;99.90;;;;;;4870621;29;20081;-77
2023/03/25 09:45:01;;;;;;;;;;;9.70;99.90;;;;;;4888903;29;20081;-76
2023/03/25 09:47:28;;;;;;;21.70;3.20;;;9.80;99.90;;;;;;4876851;29;20033;-76
2023/03/25 09:49:57;;;;;;;13.52;3.20;;;9.80;99.90;;;;;;4873063;29;20044;-76
2023/03/25 09:52:37;;;;;;;17.90;3.92;;;10.00;99.90;;;;;;4890501;29;20056;-77
2023/03/25 09:55:07;;;;;;;18.48;3.10;;;10.10;99.90;;;;;;4869815;29;20085;-76
2023/03/25 09:57:43;;;;;;;24.45;3.50;;;10.10;99.90;;;;;;4881535;29;20409;-77
2023/03/25 10:00:19;;;;;;;19.80;3.80;;;10.20;99.90;;;;;;4883533;29;20040;-77
2023/03/25 10:02:59;;;;;;;23.13;3.00;;;10.20;99.90;;;;;;4885940;29;20157;-77
2023/03/25 10:05:56;;;;;;;13.82;3.17;;;10.10;99.90;;;;;;4874003;29;20495;-77
2023/03/25 10:08:34;;;;;;;24.27;2.90;;;10.20;99.90;;;;;;4883902;29;20433;-77
2023/03/25 10:11:02;;;;;;;18.10;2.63;;;10.30;99.90;;;;;;4867490;29;20056;-76
2023/03/25 10:13:49;;;;;;;15.40;2.85;;;10.40;99.90;;;;;;4870238;29;20048;-77
2023/03/25 10:16:28;;;;;;;17.10;2.97;;;10.40;99.90;;;;;;4892570;29;20045;-77
2023/03/25 10:19:28;;;;;;;17.45;3.25;;;10.50;99.90;;;;;;4872869;29;20075;-77
2023/03/25 10:22:16;;;;;;;21.85;3.65;;;10.50;99.90;;;;;;4885507;29;20052;-76
2023/03/25 10:24:54;;;;;;;17.88;3.17;;;10.60;99.90;;;;;;4879635;29;20499;-77
2023/03/25 10:27:23;;;;;;;19.30;3.10;;;10.80;99.90;;;;;;4882364;29;21413;-77
2023/03/25 10:30:09;;;;;;;20.20;4.13;;;10.80;99.90;;;;;;4887491;29;20300;-77
2023/03/25 10:32:55;;;;;;;20.67;3.60;;;10.90;99.90;;;;;;4860367;29;20293;-78
2023/03/25 10:35:21;;;;;;;18.67;3.30;;;10.80;99.90;;;;;;4869165;29;20051;-78
2023/03/25 10:37:50;;;;;;;19.70;3.27;;;10.70;99.90;;;;;;4891917;29;20037;-77
2023/03/25 10:40:30;;;;;;;16.30;3.13;;;10.80;99.90;;;;;;4890878;29;20037;-77
2023/03/25 10:43:30;;;;;;;19.92;3.53;;;11.10;99.90;;;;;;4874556;29;20564;-77
2023/03/25 10:46:03;;;;;;;17.13;3.03;;;11.30;99.90;;;;;;4870025;29;20053;-78
2023/03/25 10:48:30;;;;;;;18.45;3.40;;;11.30;99.90;;;;;;4874284;29;20033;-77
2023/03/25 10:51:08;;;;;;;18.80;3.70;;;11.40;99.90;;;;;;4874581;29;20044;-77
2023/03/25 10:53:35;;;;;;;23.00;3.37;;;11.30;99.90;;;;;;4881312;29;20293;-77
2023/03/25 10:56:13;;;;;;;15.70;2.73;;;11.20;99.90;;;;;;4888149;29;20292;-77
2023/03/25 10:58:42;;;;;;;14.23;2.63;;;11.20;99.90;;;;;;4872701;29;20293;-78
2023/03/25 11:01:20;;;;;;;16.60;2.57;;;11.00;99.90;;;;;;4888069;29;20297;-78
2023/03/25 11:03:51;;;;;;;20.17;3.40;;;10.90;99.90;;;;;;4878841;29;20816;-77
2023/03/25 11:06:28;;;;;;;19.57;3.10;;;10.70;99.90;;;;;;4868132;29;20285;-77
2023/03/25 11:09:17;;;;;;;18.63;2.50;;;10.70;99.90;;;;;;4868885;29;20361;-78
2023/03/25 11:11:43;;;;;;;22.30;3.80;;;10.70;99.90;;;;;;4867551;29;20339;-77
2023/03/25 11:14:12;;;;;;;17.87;3.60;;;10.70;99.90;;;;;;4868197;29;20358;-77
2023/03/25 11:16:53;;;;;;;13.20;3.03;;;10.70;99.90;;;;;;4885538;29;20296;-78
2023/03/25 11:19:30;;;;;;;17.20;2.53;;;10.70;99.90;;;;;;4879031;29;20281;-77
2023/03/25 11:22:10;;;;;;;17.17;3.00;;;10.80;99.90;;;;;;4870162;29;20312;-77
2023/03/25 11:24:41;;;;;;;14.87;2.70;;;10.90;99.90;;;;;;4879026;29;20373;-78
2023/03/25 11:27:09;;;;;;;17.80;2.43;;;11.10;99.90;;;;;;4882270;29;20281;-78
2023/03/25 11:29:36;;;;;;;16.20;2.70;;;11.00;99.90;;;;;;4868937;29;20293;-77
2023/03/25 11:32:50;;;;;;;16.90;2.67;;;11.20;99.90;;;;;;4864581;29;20305;-77
2023/03/25 11:35:21;;;;;;;18.03;3.93;;;11.50;99.90;;;;;;4881661;29;20300;-78
2023/03/25 11:37:55;;;;;;;15.90;3.23;;;11.40;99.90;;;;;;4885147;29;20280;-77
2023/03/25 11:40:21;;;;;;;20.10;3.57;;;11.50;99.90;;;;;;4884189;29;20319;-77
2023/03/25 11:42:56;;;;;;;18.37;3.37;;;11.60;99.90;;;;;;4879179;29;20312;-77
2023/03/25 11:45:31;;;;;;;14.88;2.85;;;11.80;99.90;;;;;;4862256;29;20292;-77
2023/03/25 11:48:00;;;;;;;16.30;3.08;;;11.80;99.90;;;;;;4878725;29;20056;-77
2023/03/25 11:50:28;;;;;;;17.97;3.33;;;11.80;99.90;;;;;;4879252;29;20033;-77
2023/03/25 11:52:59;;;;;;;15.53;3.20;;;11.90;99.90;;;;;;4884520;29;20305;-76
2023/03/25 11:55:26;;;;;;;11.60;1.90;;;11.80;99.90;;;;;;4865468;29;20289;-76
2023/03/25 11:57:55;;;;;;;19.97;3.33;;;11.90;99.90;;;;;;4865902;29;20805;-75
2023/03/25 12:00:24;;;;;;;15.03;2.90;;;11.80;99.90;;;;;;4881410;29;20295;-77
2023/03/25 12:03:17;;;;;;;19.57;2.90;;;11.80;99.90;;;;;;4874511;29;20396;-77
2023/03/25 12:05:55;;;;;;;17.93;2.50;;;12.00;99.90;;;;;;4889719;29;20327;-76
2023/03/25 12:08:21;;;;;;;14.00;3.10;;;12.10;99.90;;;;;;4871587;29;20698;-77
2023/03/25 12:10:59;;;;;;;16.30;3.40;;;12.10;99.90;;;;;;4887058;29;20313;-78
2023/03/25 12:13:42;;;;;;;16.13;2.30;;;12.10;99.90;;;;;;4882122;29;20043;-77
2023/03/25 12:16:47;;;;;;;17.57;2.40;;;12.10;99.90;;;;;;4876608;29;20316;-78
2023/03/25 12:19:19;;;;;;;15.95;3.10;;;11.80;99.90;;;;;;4813338;29;20297;-77
2023/03/25 12:22:09;;;;;;;18.73;2.70;;;11.70;99.90;;;;;;4879333;29;20045;-75
2023/03/25 12:24:35;;;;;;;13.50;3.77;;;11.70;99.90;;;;;;4868478;29;20347;-74
2023/03/25 12:27:01;;;;;;;20.63;3.13;;;11.70;99.90;;;;;;4869038;29;20285;-74
2023/03/25 12:29:49;;;;;;;15.90;2.93;;;11.50;99.90;;;;;;4872511;29;20292;-75
2023/03/25 12:32:46;;;;;;;14.73;3.47;;;11.40;99.90;;;;;;4855268;29;20489;-75
2023/03/25 12:35:27;;;;;;;11.53;2.40;;;11.50;99.90;;;;;;4889782;29;20284;-74
2023/03/25 12:38:09;;;;;;;13.37;1.90;;;11.40;99.90;;;;;;4871815;29;20285;-75
2023/03/25 12:40:41;;;;;;;14.43;3.30;;;11.20;99.90;;;;;;4869294;29;20292;-75
2023/03/25 12:43:17;;;;;;;14.03;2.83;;;10.80;99.90;;;;;;4884812;29;20305;-75
2023/03/25 12:45:57;;;;;;;13.83;2.30;;;10.60;99.90;;;;;;4885162;29;20317;-75
2023/03/25 12:48:42;;;;;;;18.63;3.33;;;10.50;99.90;;;;;;4881733;29;20293;-75
2023/03/25 12:51:23;;;;;;;15.77;2.40;;;10.50;99.90;;;;;;4884521;29;20059;-75
2023/03/25 12:53:55;;;;;;;16.45;2.83;;;10.60;99.90;;;;;;4878049;29;20288;-75
2023/03/25 12:56:33;;;;;;;12.25;2.13;;;10.70;99.90;;;;;;4891366;29;20170;-76
2023/03/25 12:59:23;;;;;;;11.85;2.17;;;10.80;99.90;;;;;;4892536;29;20401;-76
2023/03/25 13:02:07;;;;;;;14.35;2.60;;;10.90;99.90;;;;;;4872567;29;20147;-75
2023/03/25 13:04:56;;;;;;;11.57;2.10;;;10.90;99.90;;;;;;4891707;29;20044;-75
2023/03/25 13:07:31;;;;;;;10.25;1.98;;;11.00;99.90;;;;;;4881138;29;20063;-78